Time;durP1;ratioP1;P1;durP2;ratioP2;P2;SDS_P1;SDS_P2;PMS_P1;PMS_P2;Temp;Humidity;BMP_temperature;BMP_pressure;BME280_temperature;BME280_humidity;BME280_pressure;Samples;Min_cycle;Max_cycle;Signal;HPM_P1;HPM_P2
2023/04/06 00:01:51;;;;;;;8.05;4.82;;;;;;;-1.44;67.62;93635.16;5068788;28;20201;-72
2023/04/06 00:04:16;;;;;;;9.48;5.10;;;;;;;-1.47;67.28;93628.56;5068724;28;20017;-72
2023/04/06 00:06:42;;;;;;;9.15;5.78;;;;;;;-1.53;67.41;93641.84;5068626;28;20020;-72
2023/04/06 00:09:07;;;;;;;10.30;5.68;;;;;;;-1.55;67.78;93615.94;5068978;28;20017;-73
2023/04/06 00:11:33;;;;;;;11.30;5.25;;;;;;;-1.58;67.57;93616.44;5068842;28;20021;-73
2023/04/06 00:13:58;;;;;;;10.35;5.40;;;;;;;-1.59;67.03;93606.22;5068799;28;20223;-73
2023/04/06 00:16:24;;;;;;;10.93;6.07;;;;;;;-1.51;67.04;93608.41;5066379;28;20020;-73
2023/04/06 00:18:49;;;;;;;10.30;5.75;;;;;;;-1.50;67.16;93600.31;5065326;28;20017;-73
2023/04/06 00:21:15;;;;;;;12.18;5.65;;;;;;;-1.53;67.05;93611.25;5065273;28;20025;-73
2023/04/06 00:23:41;;;;;;;8.02;4.88;;;;;;;-1.50;67.22;93600.31;5065332;28;20101;-72
2023/04/06 00:26:06;;;;;;;7.95;4.72;;;;;;;-1.52;66.92;93597.16;5065600;28;20029;-72
2023/04/06 00:28:32;;;;;;;10.30;5.03;;;;;;;-1.49;66.92;93603.72;5065336;28;20343;-73
2023/04/06 00:30:57;;;;;;;11.63;5.28;;;;;;;-1.47;67.00;93584.13;5065196;28;20554;-71
2023/04/06 00:33:23;;;;;;;10.10;5.32;;;;;;;-1.56;67.04;93590.84;5065247;28;20024;-71
2023/04/06 00:35:49;;;;;;;9.15;5.03;;;;;;;-1.50;67.40;93591.69;5063964;28;20044;-72
2023/04/06 00:38:15;;;;;;;13.93;4.80;;;;;;;-1.46;67.61;93601.41;5065186;28;20033;-71
2023/04/06 00:40:41;;;;;;;8.63;4.60;;;;;;;-1.39;67.65;93603.03;5065091;28;20044;-72
2023/04/06 00:43:08;;;;;;;12.27;5.47;;;;;;;-1.49;66.79;93614.94;5064888;28;20331;-72
2023/04/06 00:45:34;;;;;;;8.35;4.90;;;;;;;-1.50;67.32;93591.69;5065177;28;20020;-72
2023/04/06 00:48:01;;;;;;;8.90;5.03;;;;;;;-1.47;67.12;93597.19;5065012;28;20323;-72
2023/04/06 00:50:27;;;;;;;10.15;5.47;;;;;;;-1.49;67.66;93601.88;5064781;28;20024;-72
2023/04/06 00:52:53;;;;;;;7.45;4.45;;;;;;;-1.61;67.94;93588.16;5065053;28;20067;-71
2023/04/06 00:55:18;;;;;;;10.35;5.43;;;;;;;-1.68;68.43;93593.56;5064729;28;20021;-71
2023/04/06 00:57:44;;;;;;;9.05;5.25;;;;;;;-1.57;68.30;93591.84;5064767;28;20112;-71
2023/04/06 01:00:10;;;;;;;10.60;5.75;;;;;;;-1.56;67.98;93596.06;5064958;28;20312;-71
2023/04/06 01:02:36;;;;;;;10.65;6.28;;;;;;;-1.58;68.35;93594.75;5064743;28;20033;-72
2023/04/06 01:05:02;;;;;;;9.82;5.75;;;;;;;-1.64;68.93;93593.88;5064531;28;20070;-71
2023/04/06 01:07:27;;;;;;;12.57;6.18;;;;;;;-1.64;68.78;93576.38;5064555;28;20215;-72
2023/04/06 01:09:54;;;;;;;10.05;5.80;;;;;;;-1.73;68.95;93579.66;5064611;28;20298;-72
2023/04/06 01:12:19;;;;;;;11.05;5.75;;;;;;;-1.66;68.89;93580.28;5064557;28;20020;-71
2023/04/06 01:14:45;;;;;;;9.95;5.13;;;;;;;-1.68;68.73;93575.28;5064390;28;20383;-72
2023/04/06 01:17:10;;;;;;;10.07;5.55;;;;;;;-1.71;68.91;93581.00;5064559;28;20016;-72
2023/04/06 01:19:36;;;;;;;9.93;5.97;;;;;;;-1.75;69.13;93576.50;5064541;28;20266;-72
2023/04/06 01:22:01;;;;;;;10.82;6.05;;;;;;;-1.70;69.41;93572.13;5064388;28;20028;-72
2023/04/06 01:24:27;;;;;;;12.85;6.13;;;;;;;-1.70;69.67;93568.72;5064286;28;20323;-72
2023/04/06 01:26:52;;;;;;;12.85;5.78;;;;;;;-1.68;69.62;93575.28;5064184;28;20028;-72
2023/04/06 01:29:18;;;;;;;11.13;6.13;;;;;;;-1.65;69.69;93566.97;5063135;28;20047;-72
2023/04/06 01:31:43;;;;;;;10.50;6.00;;;;;;;-1.67;69.63;93568.22;5064138;28;20090;-72
2023/04/06 01:34:09;;;;;;;8.02;4.95;;;;;;;-1.61;69.38;93567.25;5064018;28;20227;-72
2023/04/06 01:36:35;;;;;;;11.73;6.28;;;;;;;-1.58;69.41;93566.78;5064345;28;20025;-72
2023/04/06 01:39:00;;;;;;;9.73;5.03;;;;;;;-1.58;69.19;93566.00;5063905;28;20112;-72
2023/04/06 01:41:26;;;;;;;10.75;5.60;;;;;;;-1.58;69.54;93568.59;5063791;28;20098;-72
2023/04/06 01:43:54;;;;;;;9.48;5.80;;;;;;;-1.57;69.50;93560.50;5063979;28;20039;-72
2023/04/06 01:46:20;;;;;;;10.18;5.82;;;;;;;-1.49;69.61;93564.50;5063850;28;20044;-72
2023/04/06 01:48:45;;;;;;;8.57;5.35;;;;;;;-1.54;69.72;93557.41;5063735;28;20216;-72
2023/04/06 01:51:11;;;;;;;10.73;5.95;;;;;;;-1.51;69.75;93559.50;5063793;28;20203;-72
2023/04/06 01:53:36;;;;;;;11.35;5.60;;;;;;;-1.52;69.25;93559.78;5063705;28;20021;-72
2023/04/06 01:56:01;;;;;;;12.85;5.95;;;;;;;-1.62;69.99;93555.22;5063474;28;20037;-73
2023/04/06 01:58:27;;;;;;;10.43;5.78;;;;;;;-1.68;69.58;93545.75;5062461;28;20342;-72
2023/04/06 02:00:52;;;;;;;10.77;6.05;;;;;;;-1.60;69.92;93558.38;5063533;28;20029;-72
2023/04/06 02:03:18;;;;;;;10.60;5.88;;;;;;;-1.56;69.80;93556.06;5063423;28;20031;-72
2023/04/06 02:05:43;;;;;;;9.20;5.70;;;;;;;-1.56;69.78;93569.16;5063480;28;20029;-73
2023/04/06 02:08:09;;;;;;;9.85;5.60;;;;;;;-1.55;69.54;93550.59;5063368;28;20024;-72
2023/04/06 02:10:34;;;;;;;11.15;6.20;;;;;;;-1.57;69.73;93559.72;5063351;28;20067;-72
2023/04/06 02:13:00;;;;;;;8.75;4.95;;;;;;;-1.64;70.02;93563.31;5063510;28;20044;-72
2023/04/06 02:15:26;;;;;;;10.82;5.72;;;;;;;-1.56;69.94;93559.47;5063400;28;20062;-72
2023/04/06 02:17:53;;;;;;;9.40;5.13;;;;;;;-1.51;69.94;93550.88;5063153;28;20028;-72
2023/04/06 02:20:18;;;;;;;9.02;5.50;;;;;;;-1.47;69.44;93565.84;5063189;28;20222;-72
2023/04/06 02:22:44;;;;;;;13.00;6.03;;;;;;;-1.57;69.64;93562.31;5063003;28;20035;-72
2023/04/06 02:25:09;;;;;;;10.27;4.57;;;;;;;-1.57;69.90;93568.34;5063189;28;20024;-72
2023/04/06 02:27:35;;;;;;;9.63;5.80;;;;;;;-1.52;69.79;93549.31;5063239;28;20088;-73
2023/04/06 02:30:05;;;;;;;10.45;5.93;;;;;;;-1.52;69.82;93565.78;5063087;28;20200;-72
2023/04/06 02:32:30;;;;;;;10.63;5.57;;;;;;;-1.49;69.61;93543.59;5062953;28;20028;-72
2023/04/06 02:34:56;;;;;;;11.90;5.97;;;;;;;-1.48;69.53;93545.19;5062923;28;20320;-72
2023/04/06 02:37:23;;;;;;;8.75;4.85;;;;;;;-1.51;69.53;93563.97;5062974;28;20025;-72
2023/04/06 02:39:48;;;;;;;9.13;5.18;;;;;;;-1.47;69.71;93558.00;5062536;28;20025;-72
2023/04/06 02:42:15;;;;;;;11.63;6.25;;;;;;;-1.46;69.45;93549.13;5062789;28;20044;-71
2023/04/06 02:44:41;;;;;;;10.50;5.80;;;;;;;-1.49;69.95;93547.00;5062892;28;20024;-71
2023/04/06 02:47:06;;;;;;;9.30;5.75;;;;;;;-1.48;69.52;93574.72;5062954;28;20028;-71
2023/04/06 02:49:32;;;;;;;8.25;4.80;;;;;;;-1.51;69.45;93545.66;5062927;28;20036;-71
2023/04/06 02:51:57;;;;;;;10.40;4.50;;;;;;;-1.50;69.30;93545.44;5061586;28;20056;-71
2023/04/06 02:54:23;;;;;;;8.18;4.72;;;;;;;-1.46;69.72;93541.28;5062646;28;20020;-71
2023/04/06 02:56:48;;;;;;;12.18;6.15;;;;;;;-1.50;69.92;93540.19;5062789;28;20037;-72
2023/04/06 02:59:14;;;;;;;8.75;4.65;;;;;;;-1.46;69.54;93533.44;5062606;28;20033;-71
2023/04/06 03:01:40;;;;;;;9.15;5.22;;;;;;;-1.52;69.23;93542.25;5062582;28;20223;-72
2023/04/06 03:04:05;;;;;;;9.23;5.45;;;;;;;-1.39;69.57;93555.97;5062859;28;20084;-73
2023/04/06 03:06:31;;;;;;;9.77;5.65;;;;;;;-1.42;69.32;93534.53;5062599;28;20342;-72
2023/04/06 03:08:56;;;;;;;10.60;5.93;;;;;;;-1.37;69.80;93538.22;5062628;28;20383;-72
2023/04/06 03:11:22;;;;;;;12.68;5.72;;;;;;;-1.34;69.17;93548.19;5062421;28;20215;-72
2023/04/06 03:13:47;;;;;;;10.75;6.10;;;;;;;-1.39;69.28;93529.84;5062665;28;20021;-71
2023/04/06 03:16:12;;;;;;;12.82;5.65;;;;;;;-1.42;69.80;93534.53;5061312;28;20035;-71
2023/04/06 03:18:38;;;;;;;9.55;5.82;;;;;;;-1.45;69.42;93545.47;5062816;28;20028;-71
2023/04/06 03:21:04;;;;;;;12.70;6.28;;;;;;;-1.47;69.74;93547.53;5062549;28;20029;-72
2023/04/06 03:23:29;;;;;;;9.57;5.45;;;;;;;-1.53;70.04;93545.91;5062350;28;20031;-72
2023/04/06 03:25:55;;;;;;;10.40;5.78;;;;;;;-1.54;70.05;93544.34;5062462;28;20219;-72
2023/04/06 03:28:20;;;;;;;11.23;6.13;;;;;;;-1.51;70.17;93533.38;5062416;28;20017;-72
2023/04/06 03:30:46;;;;;;;10.88;6.03;;;;;;;-1.44;69.69;93552.28;5062244;28;20323;-72
2023/04/06 03:33:11;;;;;;;11.60;5.35;;;;;;;-1.50;69.37;93539.41;5062342;28;20092;-72
2023/04/06 03:35:37;;;;;;;10.35;5.47;;;;;;;-1.47;69.62;93554.59;5062600;28;20044;-72
2023/04/06 03:38:05;;;;;;;20.02;5.65;;;;;;;-1.49;69.98;93543.59;5062271;28;20067;-72
2023/04/06 03:40:31;;;;;;;13.82;5.72;;;;;;;-1.51;69.37;93562.13;5062240;28;20112;-72
2023/04/06 03:42:57;;;;;;;9.40;5.30;;;;;;;-1.49;69.24;93544.38;5062309;28;20033;-72
2023/04/06 03:45:22;;;;;;;9.23;5.43;;;;;;;-1.54;70.16;93536.50;5062197;28;20307;-71
2023/04/06 03:47:47;;;;;;;9.18;5.05;;;;;;;-1.48;69.74;93543.34;5062046;28;20094;-72
2023/04/06 03:50:13;;;;;;;8.68;5.55;;;;;;;-1.41;69.26;93549.16;5062128;28;20017;-71
2023/04/06 03:52:38;;;;;;;9.93;5.70;;;;;;;-1.45;69.41;93545.47;5065084;28;20048;-71
2023/04/06 03:55:05;;;;;;;7.22;4.25;;;;;;;-1.41;69.10;93548.38;5064995;28;20017;-72
2023/04/06 03:57:30;;;;;;;10.02;5.68;;;;;;;-1.33;69.38;93542.72;5065786;28;20048;-72
2023/04/06 03:59:55;;;;;;;7.82;4.88;;;;;;;-1.34;68.81;93545.56;5065578;28;20214;-71
2023/04/06 04:02:21;;;;;;;8.65;5.38;;;;;;;-1.36;68.78;93539.78;5065793;28;20220;-71
2023/04/06 04:04:46;;;;;;;8.18;4.82;;;;;;;-1.32;68.53;93546.09;5065921;28;20039;-71
2023/04/06 04:07:12;;;;;;;8.48;4.32;;;;;;;-1.29;68.64;93559.47;5065960;28;20036;-72
2023/04/06 04:09:37;;;;;;;8.82;5.35;;;;;;;-1.27;68.42;93546.16;5065843;28;20031;-71
2023/04/06 04:12:03;;;;;;;9.50;5.03;;;;;;;-1.28;68.86;93550.63;5065528;28;20017;-72
2023/04/06 04:14:28;;;;;;;10.57;4.82;;;;;;;-1.26;68.24;93542.53;5065757;28;20175;-71
2023/04/06 04:16:54;;;;;;;9.60;4.70;;;;;;;-1.25;68.48;93557.97;5065689;28;20268;-71
2023/04/06 04:19:19;;;;;;;10.68;5.20;;;;;;;-1.16;68.29;93537.41;5065657;28;20025;-71
2023/04/06 04:21:46;;;;;;;7.63;4.30;;;;;;;-1.13;68.08;93552.59;5065484;28;20037;-71
2023/04/06 04:24:12;;;;;;;8.60;4.32;;;;;;;-1.14;67.85;93551.03;5065348;28;20017;-71
2023/04/06 04:26:39;;;;;;;6.35;3.70;;;;;;;-1.16;67.74;93547.06;5065515;28;20070;-71
2023/04/06 04:29:04;;;;;;;9.15;4.95;;;;;;;-1.13;68.05;93551.81;5065607;28;20092;-71
2023/04/06 04:31:32;;;;;;;7.93;4.43;;;;;;;-1.10;68.02;93559.94;5065355;28;20047;-71
2023/04/06 04:34:00;;;;;;;9.75;4.85;;;;;;;-1.11;67.70;93558.34;5065446;28;20040;-71
2023/04/06 04:36:26;;;;;;;6.35;4.30;;;;;;;-1.04;67.54;93566.00;5065167;28;20025;-71
2023/04/06 04:38:52;;;;;;;6.57;3.70;;;;;;;-1.07;67.71;93558.66;5065282;28;20037;-71
2023/04/06 04:41:17;;;;;;;8.23;4.80;;;;;;;-0.97;67.24;93560.59;5065084;28;20031;-71
2023/04/06 04:43:43;;;;;;;9.73;4.53;;;;;;;-0.93;67.20;93551.19;5065080;28;20021;-71
2023/04/06 04:46:09;;;;;;;8.52;4.85;;;;;;;-0.92;67.19;93569.25;5064944;28;20025;-71
2023/04/06 04:48:34;;;;;;;10.80;4.28;;;;;;;-0.96;67.06;93549.06;5065124;28;20048;-71
2023/04/06 04:51:00;;;;;;;9.30;4.88;;;;;;;-0.98;67.33;93564.22;5065023;28;20032;-71
2023/04/06 04:53:25;;;;;;;11.10;5.35;;;;;;;-0.93;67.23;93551.19;5064984;28;20113;-71
2023/04/06 04:55:51;;;;;;;9.60;5.63;;;;;;;-0.91;66.90;93552.53;5064898;28;20219;-71
2023/04/06 04:58:18;;;;;;;7.15;4.32;;;;;;;-0.88;66.58;93530.28;5064668;28;20068;-71
2023/04/06 05:00:44;;;;;;;8.30;4.25;;;;;;;-0.83;66.49;93546.03;5064908;28;20055;-71
2023/04/06 05:03:16;;;;;;;7.40;4.40;;;;;;;-0.76;66.31;93541.38;5064435;28;20029;-71
2023/04/06 05:05:41;;;;;;;10.23;5.22;;;;;;;-0.76;66.86;93540.59;5064761;28;20315;-70
2023/04/06 05:08:07;;;;;;;8.77;4.90;;;;;;;-0.68;66.43;93543.53;5064849;28;20029;-70
2023/04/06 05:10:34;;;;;;;8.43;4.32;;;;;;;-0.75;66.64;93547.41;5064512;28;20078;-71
2023/04/06 05:12:59;;;;;;;9.75;4.65;;;;;;;-0.66;66.48;93551.94;5064559;28;20020;-71
2023/04/06 05:15:25;;;;;;;8.98;4.95;;;;;;;-0.64;66.28;93552.47;5064482;28;20198;-71
2023/04/06 05:17:50;;;;;;;7.97;4.72;;;;;;;-0.56;66.33;93545.19;5064598;28;20063;-71
2023/04/06 05:20:16;;;;;;;8.68;4.95;;;;;;;-0.52;66.02;93543.66;5064439;28;20028;-71
2023/04/06 05:22:41;;;;;;;7.45;4.03;;;;;;;-0.42;65.50;93541.09;5064297;28;20029;-71
2023/04/06 05:25:07;;;;;;;7.55;4.68;;;;;;;-0.26;65.54;93545.41;5064560;28;20231;-72
2023/04/06 05:27:32;;;;;;;6.45;3.85;;;;;;;-0.08;64.62;93548.63;5064362;28;20032;-71
2023/04/06 05:29:58;;;;;;;6.43;3.40;;;;;;;-0.04;64.60;93537.41;5064460;28;20071;-71
2023/04/06 05:32:24;;;;;;;14.25;6.30;;;;;;;0.13;64.62;93544.28;5064398;28;20020;-71
2023/04/06 05:34:50;;;;;;;11.45;5.65;;;;;;;0.17;63.87;93543.50;5064241;28;20033;-72
2023/04/06 05:37:15;;;;;;;11.77;6.00;;;;;;;0.20;64.43;93563.19;5064085;28;20047;-71
2023/04/06 05:39:41;;;;;;;9.73;6.25;;;;;;;0.26;64.01;93551.66;5064271;28;20066;-72
2023/04/06 05:42:06;;;;;;;13.95;7.22;;;;;;;0.37;64.23;93544.66;5064101;28;20025;-70
2023/04/06 05:44:32;;;;;;;16.73;7.30;;;;;;;0.31;64.31;93545.69;5063976;28;20032;-70
2023/04/06 05:46:58;;;;;;;10.85;6.07;;;;;;;0.43;63.94;93548.06;5063872;28;20029;-72
2023/04/06 05:49:23;;;;;;;11.30;5.78;;;;;;;0.43;64.37;93546.25;5063654;28;20036;-72
2023/04/06 05:51:48;;;;;;;10.48;5.68;;;;;;;0.35;63.88;93538.88;5063910;28;20020;-71
2023/04/06 05:54:14;;;;;;;10.32;5.07;;;;;;;0.36;63.89;93540.44;5063903;28;20029;-71
2023/04/06 05:56:39;;;;;;;9.52;5.45;;;;;;;0.33;63.67;93557.47;5063549;28;20044;-71
2023/04/06 05:59:05;;;;;;;12.68;5.72;;;;;;;0.25;64.36;93533.59;5063756;28;20311;-70
2023/04/06 06:01:31;;;;;;;9.57;5.50;;;;;;;0.24;64.86;93539.88;5063528;28;20028;-71
2023/04/06 06:03:56;;;;;;;11.65;6.60;;;;;;;0.28;65.02;93538.31;5063767;28;20028;-71
2023/04/06 06:06:21;;;;;;;16.70;8.30;;;;;;;0.37;64.89;93528.91;5063609;28;20032;-71
2023/04/06 06:08:47;;;;;;;14.73;6.90;;;;;;;0.50;64.84;93535.50;5063341;28;20035;-71
2023/04/06 06:11:12;;;;;;;17.15;6.55;;;;;;;0.46;64.02;93532.59;5063290;28;20075;-72
2023/04/06 06:13:38;;;;;;;15.82;7.53;;;;;;;0.48;64.33;93537.59;5062952;28;20327;-72
2023/04/06 06:16:05;;;;;;;10.98;5.43;;;;;;;0.43;64.07;93541.00;5063473;28;20024;-71
2023/04/06 06:18:30;;;;;;;10.38;5.13;;;;;;;0.44;63.84;93526.81;5063305;28;20055;-72
2023/04/06 06:20:56;;;;;;;12.50;6.78;;;;;;;0.40;64.32;93531.00;5063115;28;20025;-72
2023/04/06 06:23:21;;;;;;;18.33;8.68;;;;;;;0.52;65.13;93543.91;5063087;28;20066;-71
2023/04/06 06:25:47;;;;;;;15.65;6.82;;;;;;;0.66;64.16;93541.59;5062592;28;20045;-71
2023/04/06 06:28:12;;;;;;;14.27;7.07;;;;;;;0.69;64.54;93533.19;5062779;28;20055;-70
2023/04/06 06:30:38;;;;;;;9.93;5.60;;;;;;;0.82;63.89;93530.06;5062943;28;20323;-69
2023/04/06 06:33:03;;;;;;;15.95;7.10;;;;;;;0.85;63.79;93537.41;5063045;28;20024;-70
2023/04/06 06:35:28;;;;;;;11.48;6.15;;;;;;;0.86;62.58;93530.34;5062762;28;20028;-70
2023/04/06 06:37:54;;;;;;;10.68;5.57;;;;;;;0.90;63.39;93531.41;5062607;28;20091;-70
2023/04/06 06:40:23;;;;;;;7.80;4.68;;;;;;;0.87;62.55;93535.31;5062726;28;20045;-69
2023/04/06 06:42:48;;;;;;;9.15;5.25;;;;;;;0.93;62.22;93528.25;5062483;28;20055;-69
2023/04/06 06:45:14;;;;;;;12.52;5.43;;;;;;;1.00;62.54;93529.56;5062251;28;20033;-69
2023/04/06 06:47:40;;;;;;;8.98;5.22;;;;;;;1.07;61.74;93537.19;5061243;28;20060;-70
2023/04/06 06:50:06;;;;;;;9.77;5.18;;;;;;;1.18;62.11;93543.22;5061499;28;20035;-69
2023/04/06 06:52:32;;;;;;;9.50;5.50;;;;;;;1.28;60.98;93545.06;5061495;28;20044;-71
2023/04/06 06:54:57;;;;;;;9.93;6.30;;;;;;;1.12;61.76;93547.69;5061660;28;20188;-71
2023/04/06 06:57:23;;;;;;;8.02;4.78;;;;;;;1.18;61.93;93540.59;5062724;28;20048;-71
2023/04/06 06:59:48;;;;;;;8.73;5.20;;;;;;;1.14;62.04;93537.72;5062672;28;20101;-71
2023/04/06 07:02:14;;;;;;;8.68;4.28;;;;;;;1.01;62.08;93538.22;5062385;28;20055;-70
2023/04/06 07:04:39;;;;;;;10.60;5.68;;;;;;;1.04;62.06;93523.78;5062607;28;20021;-80
2023/04/06 07:07:05;;;;;;;10.98;5.22;;;;;;;1.08;62.87;93522.22;5062818;28;20017;-79
2023/04/06 07:09:30;;;;;;;10.75;6.35;;;;;;;1.12;62.38;93531.13;5062585;28;20025;-79
2023/04/06 07:11:56;;;;;;;9.73;5.95;;;;;;;1.23;62.89;93521.44;5062596;28;20013;-79
2023/04/06 07:14:22;;;;;;;8.05;5.55;;;;;;;1.25;62.05;93524.59;5062259;28;20017;-78
2023/04/06 07:16:48;;;;;;;10.57;5.22;;;;;;;1.22;61.93;93527.75;5061024;28;20193;-78
2023/04/06 07:19:14;;;;;;;11.55;4.80;;;;;;;1.11;61.72;93519.09;5062474;28;20235;-78
2023/04/06 07:21:39;;;;;;;9.65;4.90;;;;;;;1.24;62.27;93523.78;5062580;28;20045;-78
2023/04/06 07:24:05;;;;;;;16.75;6.35;;;;;;;1.41;62.24;93523.53;5061876;28;20316;-78
2023/04/06 07:26:30;;;;;;;10.88;6.05;;;;;;;1.49;61.72;93516.97;5065219;28;20024;-78
2023/04/06 07:28:56;;;;;;;8.55;4.78;;;;;;;1.60;61.23;93515.91;5066741;28;20020;-78
2023/04/06 07:31:21;;;;;;;11.18;5.40;;;;;;;1.69;61.01;93526.66;5066455;28;20020;-79
2023/04/06 07:33:47;;;;;;;14.23;5.90;;;;;;;1.51;60.26;93523.53;5066509;28;20319;-78
2023/04/06 07:36:12;;;;;;;16.60;5.90;;;;;;;1.54;60.55;93519.59;5066245;28;20016;-78
2023/04/06 07:38:38;;;;;;;15.25;6.00;;;;;;;1.48;60.57;93533.78;5066348;28;20021;-78
2023/04/06 07:41:03;;;;;;;12.25;4.80;;;;;;;1.45;60.67;93506.22;5066459;28;20320;-78
2023/04/06 07:43:30;;;;;;;16.83;6.65;;;;;;;1.58;61.37;93515.38;5066297;28;20258;-79
2023/04/06 07:45:57;;;;;;;12.43;5.32;;;;;;;1.60;60.03;93516.69;5066229;28;20017;-79
2023/04/06 07:48:22;;;;;;;13.80;6.30;;;;;;;1.70;60.70;93526.41;5066090;28;20016;-78
2023/04/06 07:50:48;;;;;;;14.13;5.90;;;;;;;1.81;60.75;93519.28;5066025;28;20028;-78
2023/04/06 07:53:13;;;;;;;13.80;7.72;;;;;;;1.96;61.37;93505.31;5066115;28;20028;-79
2023/04/06 07:55:39;;;;;;;8.73;5.00;;;;;;;1.92;58.93;93533.97;5065914;28;20311;-78
2023/04/06 07:58:04;;;;;;;11.65;5.10;;;;;;;1.90;60.07;93509.03;5064659;28;20082;-78
2023/04/06 08:00:30;;;;;;;9.85;5.72;;;;;;;2.00;59.42;93514.25;5064850;28;20092;-78
2023/04/06 08:02:56;;;;;;;8.95;4.80;;;;;;;2.06;59.03;93518.44;5065897;28;20028;-79
2023/04/06 08:05:21;;;;;;;7.43;4.50;;;;;;;2.09;57.46;93517.88;5065660;28;20315;-79
2023/04/06 08:07:47;;;;;;;8.07;4.63;;;;;;;2.05;57.53;93506.34;5065818;28;20025;-78
2023/04/06 08:10:12;;;;;;;8.45;4.75;;;;;;;1.98;58.44;93532.91;5065805;28;20082;-79
2023/04/06 08:12:38;;;;;;;12.15;5.35;;;;;;;2.10;58.32;93511.59;5065880;28;20020;-78
2023/04/06 08:15:06;;;;;;;8.95;5.10;;;;;;;2.29;59.62;93526.78;5065684;28;20025;-79
2023/04/06 08:17:33;;;;;;;7.97;4.50;;;;;;;2.28;56.48;93510.22;5065598;28;20219;-79
2023/04/06 08:19:59;;;;;;;11.82;5.10;;;;;;;2.13;58.14;93524.19;5065688;28;20031;-79
2023/04/06 08:22:25;;;;;;;7.13;4.38;;;;;;;2.04;58.64;93523.16;5065508;28;20024;-79
2023/04/06 08:24:51;;;;;;;8.98;5.13;;;;;;;2.13;58.34;93512.88;5065570;28;20040;-79
2023/04/06 08:27:16;;;;;;;12.05;5.68;;;;;;;2.20;58.59;93535.22;5065650;28;20092;-79
2023/04/06 08:29:41;;;;;;;11.32;5.78;;;;;;;2.30;58.97;93517.81;5065548;28;20063;-79
2023/04/06 08:32:07;;;;;;;11.23;5.30;;;;;;;2.45;58.41;93541.44;5065679;28;20037;-79
2023/04/06 08:34:33;;;;;;;10.63;5.05;;;;;;;2.42;57.93;93531.44;5065376;28;20307;-78
2023/04/06 08:36:59;;;;;;;9.52;5.95;;;;;;;2.58;57.43;93522.41;5064553;28;20024;-79
2023/04/06 08:39:27;;;;;;;9.65;5.13;;;;;;;2.41;57.07;93543.03;5065270;28;20040;-78
2023/04/06 08:41:56;;;;;;;7.75;4.72;;;;;;;2.49;56.19;93537.19;5065204;28;20312;-79
2023/04/06 08:44:22;;;;;;;11.32;5.38;;;;;;;2.52;56.53;93536.66;5065268;28;20017;-79
2023/04/06 08:46:48;;;;;;;10.55;6.03;;;;;;;2.59;57.13;93531.13;5065044;28;20017;-79
2023/04/06 08:49:15;;;;;;;11.05;5.97;;;;;;;2.47;56.39;93539.31;5065056;28;20051;-79
2023/04/06 08:51:42;;;;;;;10.07;5.85;;;;;;;2.49;58.25;93553.00;5064970;28;20311;-79
2023/04/06 08:54:07;;;;;;;15.07;6.43;;;;;;;2.56;56.41;93531.63;5065328;28;20238;-81
2023/04/06 08:56:36;;;;;;;14.05;6.53;;;;;;;2.68;57.96;93531.31;5064835;28;20033;-79
2023/04/06 08:59:03;;;;;;;8.38;5.03;;;;;;;2.76;55.36;93518.38;5064777;28;20278;-79
2023/04/06 09:01:30;;;;;;;13.13;5.82;;;;;;;2.78;56.15;93521.53;5063438;28;20044;-79
2023/04/06 09:04:00;;;;;;;10.57;6.07;;;;;;;2.99;57.35;93518.75;5064755;28;20071;-79
2023/04/06 09:06:26;;;;;;;14.40;6.53;;;;;;;3.04;55.37;93516.09;5064840;28;20092;-79
2023/04/06 09:08:53;;;;;;;9.35;5.50;;;;;;;3.08;55.42;93517.13;5064806;28;20036;-79
2023/04/06 09:11:18;;;;;;;10.35;5.40;;;;;;;3.14;54.60;93528.41;5064588;28;20021;-79
2023/04/06 09:13:52;;;;;;;8.27;4.95;;;;;;;2.89;54.40;93524.09;5063365;28;20040;-79
2023/04/06 09:16:19;;;;;;;9.52;5.70;;;;;;;2.96;55.19;93533.25;5064542;28;20287;-80
2023/04/06 09:18:45;;;;;;;11.23;6.05;;;;;;;3.11;54.75;93521.06;5063512;28;20032;-79
2023/04/06 09:21:11;;;;;;;10.35;5.50;;;;;;;3.26;54.99;93528.84;5064407;28;20025;-80
2023/04/06 09:23:37;;;;;;;9.38;5.47;;;;;;;3.29;54.02;93527.50;5064604;28;20091;-79
2023/04/06 09:26:13;;;;;;;11.07;5.53;;;;;;;3.22;53.19;93519.94;5064700;28;20224;-79
2023/04/06 09:28:46;;;;;;;10.60;6.05;;;;;;;3.20;52.82;93529.97;5064617;28;20070;-79
2023/04/06 09:31:13;;;;;;;8.20;4.97;;;;;;;2.97;53.10;93526.94;5064367;28;20021;-79
2023/04/06 09:33:40;;;;;;;11.60;5.63;;;;;;;3.10;54.24;93530.81;5064403;28;20040;-80
2023/04/06 09:36:09;;;;;;;8.63;5.35;;;;;;;3.28;53.82;93529.38;5064309;28;20021;-80
2023/04/06 09:38:36;;;;;;;9.98;5.38;;;;;;;3.20;53.28;93522.84;5064309;28;20045;-79
2023/04/06 09:41:01;;;;;;;11.55;5.10;;;;;;;2.92;53.65;93519.06;5064112;28;20027;-79
2023/04/06 09:43:27;;;;;;;13.25;5.95;;;;;;;3.08;54.05;93513.72;5063881;28;20021;-79
2023/04/06 09:45:53;;;;;;;10.10;5.53;;;;;;;3.18;53.54;93522.31;5063910;28;20023;-79
2023/04/06 09:48:21;;;;;;;7.28;4.78;;;;;;;3.24;52.70;93525.72;5063550;28;20021;-80
2023/04/06 09:50:49;;;;;;;13.82;6.18;;;;;;;3.29;52.82;93515.13;5063509;28;20028;-80
2023/04/06 09:53:19;;;;;;;9.07;5.35;;;;;;;3.25;53.10;93527.28;5063877;28;20029;-80
2023/04/06 09:55:45;;;;;;;13.02;6.70;;;;;;;3.27;53.50;93519.88;5063876;28;20023;-79
2023/04/06 09:58:15;;;;;;;12.13;5.70;;;;;;;3.44;53.17;93537.13;5063539;28;20040;-80
2023/04/06 10:01:11;;;;;;;9.48;5.70;;;;;;;3.33;53.15;93516.16;5063673;28;20016;-80
2023/04/06 10:03:45;;;;;;;12.23;5.22;;;;;;;3.37;52.31;93538.25;5060952;28;20037;-80
2023/04/06 10:06:12;;;;;;;9.10;5.65;;;;;;;3.42;51.55;93519.00;5063651;28;20032;-80
2023/04/06 10:08:41;;;;;;;11.90;5.78;;;;;;;3.41;52.47;93522.69;5063482;28;20035;-80
2023/04/06 10:11:08;;;;;;;10.40;5.07;;;;;;;3.25;51.33;93532.53;5063759;28;20207;-79
2023/04/06 10:13:34;;;;;;;8.02;5.45;;;;;;;3.24;52.87;93517.81;5062702;28;20035;-80
2023/04/06 10:16:03;;;;;;;12.05;6.32;;;;;;;3.30;53.66;93516.72;5063522;28;20264;-79
2023/04/06 10:18:29;;;;;;;13.38;7.10;;;;;;;3.40;52.57;93510.56;5063407;28;20059;-80
2023/04/06 10:21:00;;;;;;;14.70;6.88;;;;;;;3.53;52.35;93511.78;5063243;28;20029;-79
2023/04/06 10:23:40;;;;;;;14.68;6.00;;;;;;;3.60;53.27;93517.50;5063500;28;20032;-80
2023/04/06 10:26:05;;;;;;;8.88;5.40;;;;;;;3.66;51.19;93511.13;5063380;28;20058;-80
2023/04/06 10:28:33;;;;;;;8.07;5.47;;;;;;;3.67;51.79;93512.69;5063284;28;20025;-79
2023/04/06 10:31:00;;;;;;;9.68;5.68;;;;;;;3.63;49.85;93505.63;5063100;28;20035;-79
2023/04/06 10:33:27;;;;;;;10.63;6.10;;;;;;;3.51;52.09;93506.00;5063223;28;20032;-79
2023/04/06 10:35:52;;;;;;;7.70;5.40;;;;;;;3.37;52.31;93495.31;5063045;28;20017;-79
2023/04/06 10:38:21;;;;;;;15.23;7.30;;;;;;;3.46;52.24;93508.66;5063110;28;20063;-80
2023/04/06 10:40:47;;;;;;;16.23;6.90;;;;;;;3.55;51.52;93494.63;5062769;28;20021;-80
2023/04/06 10:43:14;;;;;;;25.38;9.93;;;;;;;3.75;53.48;93506.81;5061741;28;20113;-80
2023/04/06 10:45:42;;;;;;;10.77;6.47;;;;;;;3.89;50.92;93492.97;5061725;28;20020;-79
2023/04/06 10:48:18;;;;;;;13.27;6.47;;;;;;;3.93;49.83;93493.97;5063060;28;20044;-80
2023/04/06 10:50:49;;;;;;;21.80;8.13;;;;;;;4.03;51.47;93488.63;5063003;28;20033;-79
2023/04/06 10:53:22;;;;;;;13.68;7.38;;;;;;;4.08;50.90;93493.81;5063062;28;20043;-79
2023/04/06 10:55:49;;;;;;;14.70;6.78;;;;;;;4.00;51.02;93510.28;5062809;28;20319;-79
2023/04/06 10:58:14;;;;;;;26.17;9.23;;;;;;;4.02;51.49;93484.41;5062748;28;20048;-79
2023/04/06 11:00:46;;;;;;;11.88;7.18;;;;;;;4.25;51.00;93500.50;5062501;28;20220;-79
2023/04/06 11:03:11;;;;;;;13.95;7.55;;;;;;;4.15;51.62;93499.56;5062577;28;20021;-79
2023/04/06 11:05:37;;;;;;;26.33;9.23;;;;;;;4.19;51.53;93482.09;5062906;28;20095;-79
2023/04/06 11:08:02;;;;;;;17.88;7.13;;;;;;;4.25;50.35;93487.31;5062539;28;20047;-80
2023/04/06 11:10:29;;;;;;;10.45;6.75;;;;;;;4.29;50.25;93475.13;5062723;28;20028;-79
2023/04/06 11:12:56;;;;;;;18.98;7.75;;;;;;;4.25;49.68;93484.66;5062756;28;20053;-79
2023/04/06 11:15:22;;;;;;;22.42;8.43;;;;;;;4.09;50.67;93484.88;5062436;28;20063;-79
2023/04/06 11:17:48;;;;;;;17.00;7.22;;;;;;;4.18;51.18;93482.38;5062580;28;20189;-80
2023/04/06 11:20:14;;;;;;;17.27;8.32;;;;;;;4.30;50.55;93476.72;5062530;28;20017;-80
2023/04/06 11:22:51;;;;;;;15.38;7.95;;;;;;;4.40;49.85;93481.84;5062522;28;20087;-80
2023/04/06 11:25:17;;;;;;;28.15;7.68;;;;;;;4.31;49.59;93470.34;5062398;28;20036;-80
2023/04/06 11:27:43;;;;;;;15.43;8.40;;;;;;;4.31;50.54;93478.25;5062535;28;20025;-80
2023/04/06 11:30:09;;;;;;;15.10;7.50;;;;;;;4.27;50.61;93475.41;5062520;28;20176;-80